BGBW

Narsarsuaq Airport

Narsarsuaq, Greenland
METAR BGBW 181950Z 00000KT 1200 SN VV007 M03/M05 Q0984
Observed Flight Rules
Jan-18 @ 19:50 UTC (42 minutes ago) Instrument Flight Rules
Visibility Clouds Conditions
1,207 meters
  • Vertical visibility at 700' AGL
  • Snow
Temperatures Readings
Current -3°C / 27°F
Dewpoint -5°C / 23°F
Humidity 86%
Altimeter 29.06" Hg
Pressure 983.92 hPa
Elevation 26
METAR BGBW 181950Z 00000KT 1200 SN VV007 M03/M05 Q0984
Observed Flight Rules
Jan-18 @ 19:50 UTC
(42 minutes ago)
LIFR
Clouds
  • Vertical visibility at 700' AGL
Conditions
  • Snow
Temperature Dewpoint
-3°C / 27°F -5°C / 23°F
Humidity Altimeter Pressure
86% 29.06" Hg 983.92 hPa